sensor_id;sensor_type;location;lat;lon;timestamp;temperature;humidity
58809;DHT22;44579;51.672;7.834;2023-05-20T00:01:03;14.40;54.10
58809;DHT22;44579;51.672;7.834;2023-05-20T00:03:30;14.40;54.10
58809;DHT22;44579;51.672;7.834;2023-05-20T00:05:57;14.40;54.10
58809;DHT22;44579;51.672;7.834;2023-05-20T00:08:24;14.40;54.10
58809;DHT22;44579;51.672;7.834;2023-05-20T00:10:51;14.40;54.00
58809;DHT22;44579;51.672;7.834;2023-05-20T00:13:18;14.40;53.90
58809;DHT22;44579;51.672;7.834;2023-05-20T00:15:45;14.30;53.90
58809;DHT22;44579;51.672;7.834;2023-05-20T00:18:13;14.30;53.80
58809;DHT22;44579;51.672;7.834;2023-05-20T00:20:40;14.30;53.60
58809;DHT22;44579;51.672;7.834;2023-05-20T00:23:07;14.30;53.60
58809;DHT22;44579;51.672;7.834;2023-05-20T00:25:34;14.20;53.50
58809;DHT22;44579;51.672;7.834;2023-05-20T00:28:01;14.20;53.50
58809;DHT22;44579;51.672;7.834;2023-05-20T00:30:28;14.10;53.50
58809;DHT22;44579;51.672;7.834;2023-05-20T00:32:55;14.10;53.40
58809;DHT22;44579;51.672;7.834;2023-05-20T00:35:22;14.10;53.30
58809;DHT22;44579;51.672;7.834;2023-05-20T00:37:49;14.10;53.30
58809;DHT22;44579;51.672;7.834;2023-05-20T00:40:16;14.00;53.20
58809;DHT22;44579;51.672;7.834;2023-05-20T00:42:42;14.00;53.20
58809;DHT22;44579;51.672;7.834;2023-05-20T00:45:09;13.90;53.10
58809;DHT22;44579;51.672;7.834;2023-05-20T00:47:36;13.90;53.10
58809;DHT22;44579;51.672;7.834;2023-05-20T00:50:04;13.90;53.20
58809;DHT22;44579;51.672;7.834;2023-05-20T00:52:32;13.90;53.00
58809;DHT22;44579;51.672;7.834;2023-05-20T00:54:59;13.90;53.00
58809;DHT22;44579;51.672;7.834;2023-05-20T00:57:26;13.90;52.90
58809;DHT22;44579;51.672;7.834;2023-05-20T00:59:53;13.90;52.90
58809;DHT22;44579;51.672;7.834;2023-05-20T01:02:20;13.90;52.80
58809;DHT22;44579;51.672;7.834;2023-05-20T01:04:48;13.90;52.80
58809;DHT22;44579;51.672;7.834;2023-05-20T01:07:16;13.80;52.80
58809;DHT22;44579;51.672;7.834;2023-05-20T01:09:43;13.80;52.80
58809;DHT22;44579;51.672;7.834;2023-05-20T01:12:12;13.80;52.80
58809;DHT22;44579;51.672;7.834;2023-05-20T01:14:43;13.70;52.90
58809;DHT22;44579;51.672;7.834;2023-05-20T01:17:12;13.80;52.90
58809;DHT22;44579;51.672;7.834;2023-05-20T01:19:43;13.70;52.90
58809;DHT22;44579;51.672;7.834;2023-05-20T01:22:13;13.70;52.90
58809;DHT22;44579;51.672;7.834;2023-05-20T01:24:42;13.70;53.00
58809;DHT22;44579;51.672;7.834;2023-05-20T01:27:10;13.60;53.10
58809;DHT22;44579;51.672;7.834;2023-05-20T01:29:37;13.60;53.20
58809;DHT22;44579;51.672;7.834;2023-05-20T01:32:10;13.50;53.30
58809;DHT22;44579;51.672;7.834;2023-05-20T01:34:38;13.50;53.30
58809;DHT22;44579;51.672;7.834;2023-05-20T01:37:07;13.50;53.40
58809;DHT22;44579;51.672;7.834;2023-05-20T01:39:35;13.50;53.40
58809;DHT22;44579;51.672;7.834;2023-05-20T01:42:03;13.50;53.50
58809;DHT22;44579;51.672;7.834;2023-05-20T01:44:31;13.40;53.50
58809;DHT22;44579;51.672;7.834;2023-05-20T01:46:58;13.50;53.60
58809;DHT22;44579;51.672;7.834;2023-05-20T01:49:27;13.40;53.40
58809;DHT22;44579;51.672;7.834;2023-05-20T01:51:54;13.50;53.40
58809;DHT22;44579;51.672;7.834;2023-05-20T01:54:21;13.40;53.30
58809;DHT22;44579;51.672;7.834;2023-05-20T01:56:48;13.40;53.20
58809;DHT22;44579;51.672;7.834;2023-05-20T01:59:15;13.40;53.20
58809;DHT22;44579;51.672;7.834;2023-05-20T02:01:42;13.40;53.20
58809;DHT22;44579;51.672;7.834;2023-05-20T02:04:09;13.40;53.20
58809;DHT22;44579;51.672;7.834;2023-05-20T02:06:36;13.30;53.20
58809;DHT22;44579;51.672;7.834;2023-05-20T02:09:03;13.30;53.30
58809;DHT22;44579;51.672;7.834;2023-05-20T02:11:29;13.20;53.30
58809;DHT22;44579;51.672;7.834;2023-05-20T02:13:56;13.20;53.30
58809;DHT22;44579;51.672;7.834;2023-05-20T02:16:23;13.20;53.40
58809;DHT22;44579;51.672;7.834;2023-05-20T02:18:50;13.20;53.50
58809;DHT22;44579;51.672;7.834;2023-05-20T02:21:18;13.10;53.60
58809;DHT22;44579;51.672;7.834;2023-05-20T02:23:45;13.10;53.60
58809;DHT22;44579;51.672;7.834;2023-05-20T02:26:12;13.10;54.10
58809;DHT22;44579;51.672;7.834;2023-05-20T02:28:39;13.00;54.60
58809;DHT22;44579;51.672;7.834;2023-05-20T02:31:10;13.00;54.60
58809;DHT22;44579;51.672;7.834;2023-05-20T02:33:37;13.00;54.60
58809;DHT22;44579;51.672;7.834;2023-05-20T02:36:05;13.00;54.60
58809;DHT22;44579;51.672;7.834;2023-05-20T02:38:33;13.00;54.50
58809;DHT22;44579;51.672;7.834;2023-05-20T02:41:00;13.00;54.40
58809;DHT22;44579;51.672;7.834;2023-05-20T02:43:27;13.00;54.60
58809;DHT22;44579;51.672;7.834;2023-05-20T02:45:53;13.00;54.70
58809;DHT22;44579;51.672;7.834;2023-05-20T02:48:20;13.00;54.60
58809;DHT22;44579;51.672;7.834;2023-05-20T02:50:47;13.00;54.60
58809;DHT22;44579;51.672;7.834;2023-05-20T02:53:14;12.90;54.50
58809;DHT22;44579;51.672;7.834;2023-05-20T02:55:41;13.00;54.60
58809;DHT22;44579;51.672;7.834;2023-05-20T02:58:07;12.90;54.50
58809;DHT22;44579;51.672;7.834;2023-05-20T03:00:34;13.00;54.60
58809;DHT22;44579;51.672;7.834;2023-05-20T03:03:07;12.90;54.50
58809;DHT22;44579;51.672;7.834;2023-05-20T03:05:34;12.90;54.50
58809;DHT22;44579;51.672;7.834;2023-05-20T03:08:06;12.90;54.70
58809;DHT22;44579;51.672;7.834;2023-05-20T03:10:38;12.90;54.60
58809;DHT22;44579;51.672;7.834;2023-05-20T03:13:05;12.90;54.80
58809;DHT22;44579;51.672;7.834;2023-05-20T03:15:37;12.80;54.90
58809;DHT22;44579;51.672;7.834;2023-05-20T03:18:05;12.80;55.30
58809;DHT22;44579;51.672;7.834;2023-05-20T03:20:32;12.80;55.70
58809;DHT22;44579;51.672;7.834;2023-05-20T03:22:59;12.80;56.50
58809;DHT22;44579;51.672;7.834;2023-05-20T03:25:26;12.80;55.80
58809;DHT22;44579;51.672;7.834;2023-05-20T03:27:53;12.70;55.70
58809;DHT22;44579;51.672;7.834;2023-05-20T03:30:20;12.70;55.70
58809;DHT22;44579;51.672;7.834;2023-05-20T03:32:48;12.70;55.80
58809;DHT22;44579;51.672;7.834;2023-05-20T03:35:15;12.70;56.10
58809;DHT22;44579;51.672;7.834;2023-05-20T03:37:42;12.70;56.40
58809;DHT22;44579;51.672;7.834;2023-05-20T03:40:09;12.70;56.60
58809;DHT22;44579;51.672;7.834;2023-05-20T03:42:39;12.70;56.80
58809;DHT22;44579;51.672;7.834;2023-05-20T03:45:07;12.70;57.10
58809;DHT22;44579;51.672;7.834;2023-05-20T03:47:41;12.80;57.10
58809;DHT22;44579;51.672;7.834;2023-05-20T03:50:08;12.80;57.10
58809;DHT22;44579;51.672;7.834;2023-05-20T03:52:35;12.80;57.30
58809;DHT22;44579;51.672;7.834;2023-05-20T03:55:04;12.80;57.90
58809;DHT22;44579;51.672;7.834;2023-05-20T03:57:31;12.80;58.60
58809;DHT22;44579;51.672;7.834;2023-05-20T03:59:58;12.90;58.70
58809;DHT22;44579;51.672;7.834;2023-05-20T04:02:25;12.90;58.90
58809;DHT22;44579;51.672;7.834;2023-05-20T04:04:52;13.00;59.40
58809;DHT22;44579;51.672;7.834;2023-05-20T04:07:23;13.00;59.80
58809;DHT22;44579;51.672;7.834;2023-05-20T04:09:50;13.10;59.90
58809;DHT22;44579;51.672;7.834;2023-05-20T04:12:18;13.10;60.00
58809;DHT22;44579;51.672;7.834;2023-05-20T04:14:45;13.20;59.90
58809;DHT22;44579;51.672;7.834;2023-05-20T04:17:13;13.20;60.10
58809;DHT22;44579;51.672;7.834;2023-05-20T04:19:40;13.20;60.40
58809;DHT22;44579;51.672;7.834;2023-05-20T04:22:08;13.20;60.60
58809;DHT22;44579;51.672;7.834;2023-05-20T04:24:36;13.20;60.80
58809;DHT22;44579;51.672;7.834;2023-05-20T04:27:03;13.30;61.20
58809;DHT22;44579;51.672;7.834;2023-05-20T04:29:31;13.50;61.30
58809;DHT22;44579;51.672;7.834;2023-05-20T04:32:00;13.70;61.60
58809;DHT22;44579;51.672;7.834;2023-05-20T04:34:28;13.90;61.60
58809;DHT22;44579;51.672;7.834;2023-05-20T04:36:55;14.20;61.60
58809;DHT22;44579;51.672;7.834;2023-05-20T04:39:23;14.30;61.50
58809;DHT22;44579;51.672;7.834;2023-05-20T04:41:53;14.60;61.50
58809;DHT22;44579;51.672;7.834;2023-05-20T04:44:21;14.80;61.30
58809;DHT22;44579;51.672;7.834;2023-05-20T04:46:50;14.90;61.30
58809;DHT22;44579;51.672;7.834;2023-05-20T04:49:17;15.00;61.20
58809;DHT22;44579;51.672;7.834;2023-05-20T04:51:44;15.10;61.20
58809;DHT22;44579;51.672;7.834;2023-05-20T04:54:13;15.20;61.10
58809;DHT22;44579;51.672;7.834;2023-05-20T04:56:39;15.30;61.20
58809;DHT22;44579;51.672;7.834;2023-05-20T04:59:07;15.40;61.40
58809;DHT22;44579;51.672;7.834;2023-05-20T05:01:35;15.40;61.30
58809;DHT22;44579;51.672;7.834;2023-05-20T05:04:03;15.40;61.30
58809;DHT22;44579;51.672;7.834;2023-05-20T05:06:30;15.50;61.30
58809;DHT22;44579;51.672;7.834;2023-05-20T05:08:58;15.60;61.10
58809;DHT22;44579;51.672;7.834;2023-05-20T05:11:26;15.70;60.90
58809;DHT22;44579;51.672;7.834;2023-05-20T05:14:07;15.70;60.80
58809;DHT22;44579;51.672;7.834;2023-05-20T05:16:38;15.70;60.80
58809;DHT22;44579;51.672;7.834;2023-05-20T05:19:06;15.80;60.90
58809;DHT22;44579;51.672;7.834;2023-05-20T05:21:37;15.80;60.80
58809;DHT22;44579;51.672;7.834;2023-05-20T05:24:03;15.90;60.50
58809;DHT22;44579;51.672;7.834;2023-05-20T05:26:30;16.00;60.40
58809;DHT22;44579;51.672;7.834;2023-05-20T05:29:06;16.10;60.40
58809;DHT22;44579;51.672;7.834;2023-05-20T05:32:21;16.20;60.40
58809;DHT22;44579;51.672;7.834;2023-05-20T05:34:48;16.20;60.30
58809;DHT22;44579;51.672;7.834;2023-05-20T05:37:16;16.30;60.30
58809;DHT22;44579;51.672;7.834;2023-05-20T05:39:42;16.40;59.90
58809;DHT22;44579;51.672;7.834;2023-05-20T05:42:09;16.40;59.70
58809;DHT22;44579;51.672;7.834;2023-05-20T05:44:55;16.50;59.60
58809;DHT22;44579;51.672;7.834;2023-05-20T05:47:32;16.50;59.50
58809;DHT22;44579;51.672;7.834;2023-05-20T05:50:44;16.70;59.30
58809;DHT22;44579;51.672;7.834;2023-05-20T05:53:13;16.70;59.10
58809;DHT22;44579;51.672;7.834;2023-05-20T05:55:46;16.60;59.30
58809;DHT22;44579;51.672;7.834;2023-05-20T05:58:14;16.60;59.50
58809;DHT22;44579;51.672;7.834;2023-05-20T06:00:42;16.70;59.40
58809;DHT22;44579;51.672;7.834;2023-05-20T06:03:09;16.80;59.90
58809;DHT22;44579;51.672;7.834;2023-05-20T06:05:37;16.60;58.90
58809;DHT22;44579;51.672;7.834;2023-05-20T06:08:04;16.50;58.90
58809;DHT22;44579;51.672;7.834;2023-05-20T06:10:33;16.30;59.00
58809;DHT22;44579;51.672;7.834;2023-05-20T06:12:59;16.10;59.10
58809;DHT22;44579;51.672;7.834;2023-05-20T06:15:27;16.00;59.10
58809;DHT22;44579;51.672;7.834;2023-05-20T06:17:55;15.80;59.10
58809;DHT22;44579;51.672;7.834;2023-05-20T06:20:24;15.70;59.00
58809;DHT22;44579;51.672;7.834;2023-05-20T06:22:51;15.60;59.10
58809;DHT22;44579;51.672;7.834;2023-05-20T06:25:19;15.50;59.70
58809;DHT22;44579;51.672;7.834;2023-05-20T06:27:46;15.40;59.70
58809;DHT22;44579;51.672;7.834;2023-05-20T06:30:18;15.40;59.40
58809;DHT22;44579;51.672;7.834;2023-05-20T06:32:48;15.40;59.00
58809;DHT22;44579;51.672;7.834;2023-05-20T06:35:26;15.40;59.20
58809;DHT22;44579;51.672;7.834;2023-05-20T06:37:54;15.30;59.60
58809;DHT22;44579;51.672;7.834;2023-05-20T06:40:21;15.30;60.70
58809;DHT22;44579;51.672;7.834;2023-05-20T06:42:48;15.10;59.80
58809;DHT22;44579;51.672;7.834;2023-05-20T06:45:15;15.00;60.10
58809;DHT22;44579;51.672;7.834;2023-05-20T06:47:55;15.00;60.30
58809;DHT22;44579;51.672;7.834;2023-05-20T06:50:22;15.00;60.20
58809;DHT22;44579;51.672;7.834;2023-05-20T06:52:50;15.00;60.50
58809;DHT22;44579;51.672;7.834;2023-05-20T06:55:18;14.90;60.30
58809;DHT22;44579;51.672;7.834;2023-05-20T06:57:46;14.90;60.70
58809;DHT22;44579;51.672;7.834;2023-05-20T07:00:15;14.90;61.40
58809;DHT22;44579;51.672;7.834;2023-05-20T07:02:42;14.80;61.80
58809;DHT22;44579;51.672;7.834;2023-05-20T07:05:14;14.80;61.60
58809;DHT22;44579;51.672;7.834;2023-05-20T07:07:41;14.80;61.10
58809;DHT22;44579;51.672;7.834;2023-05-20T07:10:08;15.00;60.80
58809;DHT22;44579;51.672;7.834;2023-05-20T07:12:35;15.00;60.80
58809;DHT22;44579;51.672;7.834;2023-05-20T07:15:04;15.10;61.00
58809;DHT22;44579;51.672;7.834;2023-05-20T07:17:32;15.10;61.20
58809;DHT22;44579;51.672;7.834;2023-05-20T07:19:59;15.10;61.80
58809;DHT22;44579;51.672;7.834;2023-05-20T07:22:26;15.00;62.20
58809;DHT22;44579;51.672;7.834;2023-05-20T07:25:08;15.10;61.00
58809;DHT22;44579;51.672;7.834;2023-05-20T07:27:37;15.10;61.30
58809;DHT22;44579;51.672;7.834;2023-05-20T07:30:05;15.10;61.10
58809;DHT22;44579;51.672;7.834;2023-05-20T07:32:33;15.10;61.10
58809;DHT22;44579;51.672;7.834;2023-05-20T07:35:00;15.10;61.90
58809;DHT22;44579;51.672;7.834;2023-05-20T07:37:27;15.10;62.00
58809;DHT22;44579;51.672;7.834;2023-05-20T07:39:54;15.10;62.10
58809;DHT22;44579;51.672;7.834;2023-05-20T07:42:21;15.10;61.90
58809;DHT22;44579;51.672;7.834;2023-05-20T07:44:53;15.20;62.10
58809;DHT22;44579;51.672;7.834;2023-05-20T07:47:21;15.20;62.20
58809;DHT22;44579;51.672;7.834;2023-05-20T07:49:48;15.20;62.30
58809;DHT22;44579;51.672;7.834;2023-05-20T07:52:15;15.20;62.90
58809;DHT22;44579;51.672;7.834;2023-05-20T07:54:43;15.20;63.10
58809;DHT22;44579;51.672;7.834;2023-05-20T07:57:10;15.20;63.00
58809;DHT22;44579;51.672;7.834;2023-05-20T07:59:37;15.20;62.90
58809;DHT22;44579;51.672;7.834;2023-05-20T08:02:05;15.30;62.80
58809;DHT22;44579;51.672;7.834;2023-05-20T08:04:40;15.40;62.60
58809;DHT22;44579;51.672;7.834;2023-05-20T08:07:30;15.40;62.70
58809;DHT22;44579;51.672;7.834;2023-05-20T08:09:57;15.40;62.90
58809;DHT22;44579;51.672;7.834;2023-05-20T08:12:26;15.40;63.10
58809;DHT22;44579;51.672;7.834;2023-05-20T08:14:53;15.30;63.10
58809;DHT22;44579;51.672;7.834;2023-05-20T08:17:20;15.40;63.30
58809;DHT22;44579;51.672;7.834;2023-05-20T08:19:47;15.50;63.40
58809;DHT22;44579;51.672;7.834;2023-05-20T08:22:14;15.40;63.80
58809;DHT22;44579;51.672;7.834;2023-05-20T08:24:40;15.50;64.00
58809;DHT22;44579;51.672;7.834;2023-05-20T08:27:08;15.60;63.90
58809;DHT22;44579;51.672;7.834;2023-05-20T08:29:35;15.70;63.80
58809;DHT22;44579;51.672;7.834;2023-05-20T08:32:03;15.80;63.60
58809;DHT22;44579;51.672;7.834;2023-05-20T08:34:30;15.90;64.40
58809;DHT22;44579;51.672;7.834;2023-05-20T08:36:57;16.00;63.20
58809;DHT22;44579;51.672;7.834;2023-05-20T08:39:24;16.10;63.00
58809;DHT22;44579;51.672;7.834;2023-05-20T08:41:51;16.20;62.80
58809;DHT22;44579;51.672;7.834;2023-05-20T08:44:18;16.30;62.80
58809;DHT22;44579;51.672;7.834;2023-05-20T08:46:45;16.30;62.70
58809;DHT22;44579;51.672;7.834;2023-05-20T08:49:12;16.40;62.90
58809;DHT22;44579;51.672;7.834;2023-05-20T08:51:39;16.40;62.80
58809;DHT22;44579;51.672;7.834;2023-05-20T08:54:08;16.50;62.60
58809;DHT22;44579;51.672;7.834;2023-05-20T08:56:37;16.50;62.60
58809;DHT22;44579;51.672;7.834;2023-05-20T08:59:04;16.70;62.30
58809;DHT22;44579;51.672;7.834;2023-05-20T09:01:32;16.80;62.30
58809;DHT22;44579;51.672;7.834;2023-05-20T09:03:59;16.80;62.20
58809;DHT22;44579;51.672;7.834;2023-05-20T09:06:26;16.90;62.10
58809;DHT22;44579;51.672;7.834;2023-05-20T09:08:53;17.10;61.90
58809;DHT22;44579;51.672;7.834;2023-05-20T09:11:20;17.20;61.80
58809;DHT22;44579;51.672;7.834;2023-05-20T09:13:48;17.20;61.80
58809;DHT22;44579;51.672;7.834;2023-05-20T09:16:15;17.20;62.20
58809;DHT22;44579;51.672;7.834;2023-05-20T09:18:42;17.20;62.40
58809;DHT22;44579;51.672;7.834;2023-05-20T09:21:09;17.30;62.20
58809;DHT22;44579;51.672;7.834;2023-05-20T09:23:37;17.40;62.00
58809;DHT22;44579;51.672;7.834;2023-05-20T09:26:04;17.50;62.00
58809;DHT22;44579;51.672;7.834;2023-05-20T09:28:31;17.60;61.70
58809;DHT22;44579;51.672;7.834;2023-05-20T09:30:58;17.80;61.60
58809;DHT22;44579;51.672;7.834;2023-05-20T09:33:28;18.00;61.50
58809;DHT22;44579;51.672;7.834;2023-05-20T09:36:02;18.10;61.60
58809;DHT22;44579;51.672;7.834;2023-05-20T09:38:32;18.20;61.30
58809;DHT22;44579;51.672;7.834;2023-05-20T09:41:08;18.30;60.90
58809;DHT22;44579;51.672;7.834;2023-05-20T09:43:36;18.30;60.60
58809;DHT22;44579;51.672;7.834;2023-05-20T09:46:04;18.40;60.20
58809;DHT22;44579;51.672;7.834;2023-05-20T09:48:31;18.40;60.30
58809;DHT22;44579;51.672;7.834;2023-05-20T09:51:00;18.50;60.30
58809;DHT22;44579;51.672;7.834;2023-05-20T09:53:27;18.60;60.10
58809;DHT22;44579;51.672;7.834;2023-05-20T09:55:54;18.60;61.30
58809;DHT22;44579;51.672;7.834;2023-05-20T09:58:21;18.60;60.00
58809;DHT22;44579;51.672;7.834;2023-05-20T10:00:48;18.70;60.10
58809;DHT22;44579;51.672;7.834;2023-05-20T10:03:16;18.70;60.00
58809;DHT22;44579;51.672;7.834;2023-05-20T10:05:47;18.70;60.00
58809;DHT22;44579;51.672;7.834;2023-05-20T10:19:21;19.10;59.80
58809;DHT22;44579;51.672;7.834;2023-05-20T10:24:33;19.40;59.60
58809;DHT22;44579;51.672;7.834;2023-05-20T10:27:02;19.40;58.90
58809;DHT22;44579;51.672;7.834;2023-05-20T10:29:40;19.40;58.80
58809;DHT22;44579;51.672;7.834;2023-05-20T10:32:08;19.50;59.00
58809;DHT22;44579;51.672;7.834;2023-05-20T10:34:45;19.40;58.80
58809;DHT22;44579;51.672;7.834;2023-05-20T10:37:26;19.40;59.00
58809;DHT22;44579;51.672;7.834;2023-05-20T10:42:53;19.50;58.40
58809;DHT22;44579;51.672;7.834;2023-05-20T10:45:24;19.60;58.40
58809;DHT22;44579;51.672;7.834;2023-05-20T10:47:54;19.60;58.20
58809;DHT22;44579;51.672;7.834;2023-05-20T10:50:41;19.60;58.50
58809;DHT22;44579;51.672;7.834;2023-05-20T10:53:10;19.70;58.30
58809;DHT22;44579;51.672;7.834;2023-05-20T10:55:48;19.60;58.20
58809;DHT22;44579;51.672;7.834;2023-05-20T10:58:22;19.70;58.30
58809;DHT22;44579;51.672;7.834;2023-05-20T11:00:52;19.70;58.10
58809;DHT22;44579;51.672;7.834;2023-05-20T11:03:22;19.70;57.50
58809;DHT22;44579;51.672;7.834;2023-05-20T11:05:50;19.70;57.60
58809;DHT22;44579;51.672;7.834;2023-05-20T11:08:17;19.60;57.60
58809;DHT22;44579;51.672;7.834;2023-05-20T11:10:57;19.60;57.80
58809;DHT22;44579;51.672;7.834;2023-05-20T11:13:25;19.50;58.00
58809;DHT22;44579;51.672;7.834;2023-05-20T11:15:52;19.50;58.20
58809;DHT22;44579;51.672;7.834;2023-05-20T11:18:19;19.60;58.20
58809;DHT22;44579;51.672;7.834;2023-05-20T11:20:46;19.70;58.10
58809;DHT22;44579;51.672;7.834;2023-05-20T11:23:14;19.80;57.90
58809;DHT22;44579;51.672;7.834;2023-05-20T11:25:41;19.90;57.80
58809;DHT22;44579;51.672;7.834;2023-05-20T11:28:11;20.00;57.90
58809;DHT22;44579;51.672;7.834;2023-05-20T11:30:39;20.00;58.00
58809;DHT22;44579;51.672;7.834;2023-05-20T11:33:06;20.00;58.00
58809;DHT22;44579;51.672;7.834;2023-05-20T11:35:49;19.90;58.10
58809;DHT22;44579;51.672;7.834;2023-05-20T11:38:17;19.90;57.50
58809;DHT22;44579;51.672;7.834;2023-05-20T11:40:51;19.90;57.00
58809;DHT22;44579;51.672;7.834;2023-05-20T11:43:19;19.90;56.90
58809;DHT22;44579;51.672;7.834;2023-05-20T11:45:47;19.80;56.60
58809;DHT22;44579;51.672;7.834;2023-05-20T11:48:14;19.90;56.80
58809;DHT22;44579;51.672;7.834;2023-05-20T11:50:44;19.90;56.50
58809;DHT22;44579;51.672;7.834;2023-05-20T11:53:18;19.90;56.70
58809;DHT22;44579;51.672;7.834;2023-05-20T11:55:47;20.00;56.80
58809;DHT22;44579;51.672;7.834;2023-05-20T11:58:15;20.20;56.60
58809;DHT22;44579;51.672;7.834;2023-05-20T12:00:49;20.20;56.10
58809;DHT22;44579;51.672;7.834;2023-05-20T12:03:34;20.20;56.90
58809;DHT22;44579;51.672;7.834;2023-05-20T12:06:04;20.10;56.40
58809;DHT22;44579;51.672;7.834;2023-05-20T12:08:31;20.10;56.30
58809;DHT22;44579;51.672;7.834;2023-05-20T12:10:58;20.20;56.30
58809;DHT22;44579;51.672;7.834;2023-05-20T12:13:25;20.20;56.10
58809;DHT22;44579;51.672;7.834;2023-05-20T12:15:52;20.30;56.10
58809;DHT22;44579;51.672;7.834;2023-05-20T12:18:19;20.40;56.10
58809;DHT22;44579;51.672;7.834;2023-05-20T12:20:45;20.40;56.10
58809;DHT22;44579;51.672;7.834;2023-05-20T12:23:12;20.50;56.30
58809;DHT22;44579;51.672;7.834;2023-05-20T12:25:39;20.60;56.10
58809;DHT22;44579;51.672;7.834;2023-05-20T12:28:06;20.60;55.40
58809;DHT22;44579;51.672;7.834;2023-05-20T12:30:33;20.50;55.50
58809;DHT22;44579;51.672;7.834;2023-05-20T12:33:00;20.40;55.70
58809;DHT22;44579;51.672;7.834;2023-05-20T12:35:41;20.40;55.80
58809;DHT22;44579;51.672;7.834;2023-05-20T12:38:08;20.40;55.90
58809;DHT22;44579;51.672;7.834;2023-05-20T12:40:35;20.40;55.60
58809;DHT22;44579;51.672;7.834;2023-05-20T12:43:06;20.50;55.30
58809;DHT22;44579;51.672;7.834;2023-05-20T12:45:33;20.50;55.00
58809;DHT22;44579;51.672;7.834;2023-05-20T12:47:59;20.50;55.20
58809;DHT22;44579;51.672;7.834;2023-05-20T12:50:27;20.40;54.90
58809;DHT22;44579;51.672;7.834;2023-05-20T12:53:04;20.40;55.10
58809;DHT22;44579;51.672;7.834;2023-05-20T12:55:34;20.40;55.00
58809;DHT22;44579;51.672;7.834;2023-05-20T12:58:01;20.40;55.00
58809;DHT22;44579;51.672;7.834;2023-05-20T13:00:29;20.50;55.00
58809;DHT22;44579;51.672;7.834;2023-05-20T13:02:57;20.50;54.70
58809;DHT22;44579;51.672;7.834;2023-05-20T13:05:24;20.50;54.80
58809;DHT22;44579;51.672;7.834;2023-05-20T13:07:51;20.50;54.70
58809;DHT22;44579;51.672;7.834;2023-05-20T13:10:18;20.40;54.80
58809;DHT22;44579;51.672;7.834;2023-05-20T13:12:45;20.40;55.00
58809;DHT22;44579;51.672;7.834;2023-05-20T13:15:12;20.40;55.10
58809;DHT22;44579;51.672;7.834;2023-05-20T13:17:42;20.20;55.20
58809;DHT22;44579;51.672;7.834;2023-05-20T13:20:12;20.10;55.50
58809;DHT22;44579;51.672;7.834;2023-05-20T13:22:39;20.10;55.80
58809;DHT22;44579;51.672;7.834;2023-05-20T13:25:06;20.00;55.40
58809;DHT22;44579;51.672;7.834;2023-05-20T13:27:33;19.90;55.50
58809;DHT22;44579;51.672;7.834;2023-05-20T13:30:01;19.80;55.60
58809;DHT22;44579;51.672;7.834;2023-05-20T13:32:31;19.80;55.70
58809;DHT22;44579;51.672;7.834;2023-05-20T13:34:58;19.90;55.60
58809;DHT22;44579;51.672;7.834;2023-05-20T13:37:25;20.00;55.60
58809;DHT22;44579;51.672;7.834;2023-05-20T13:39:52;20.00;55.50
58809;DHT22;44579;51.672;7.834;2023-05-20T13:42:19;20.20;55.30
58809;DHT22;44579;51.672;7.834;2023-05-20T13:44:47;20.20;55.10
58809;DHT22;44579;51.672;7.834;2023-05-20T13:47:14;20.20;55.10
58809;DHT22;44579;51.672;7.834;2023-05-20T13:49:42;20.20;55.10
58809;DHT22;44579;51.672;7.834;2023-05-20T13:52:09;20.20;55.00
58809;DHT22;44579;51.672;7.834;2023-05-20T13:54:36;20.20;55.10
58809;DHT22;44579;51.672;7.834;2023-05-20T13:57:03;20.10;55.10
58809;DHT22;44579;51.672;7.834;2023-05-20T13:59:33;20.10;55.30
58809;DHT22;44579;51.672;7.834;2023-05-20T14:02:01;20.20;55.30
58809;DHT22;44579;51.672;7.834;2023-05-20T14:04:30;20.30;55.00
58809;DHT22;44579;51.672;7.834;2023-05-20T14:06:58;20.30;54.80
58809;DHT22;44579;51.672;7.834;2023-05-20T14:09:29;20.30;54.80
58809;DHT22;44579;51.672;7.834;2023-05-20T14:11:56;20.30;54.80
58809;DHT22;44579;51.672;7.834;2023-05-20T14:14:26;20.20;54.80
58809;DHT22;44579;51.672;7.834;2023-05-20T14:16:54;20.20;55.00
58809;DHT22;44579;51.672;7.834;2023-05-20T14:19:21;20.20;55.00
58809;DHT22;44579;51.672;7.834;2023-05-20T14:21:52;20.30;55.00
58809;DHT22;44579;51.672;7.834;2023-05-20T14:24:20;20.20;55.00
58809;DHT22;44579;51.672;7.834;2023-05-20T14:26:49;20.20;55.00
58809;DHT22;44579;51.672;7.834;2023-05-20T14:29:16;20.20;55.20
58809;DHT22;44579;51.672;7.834;2023-05-20T14:31:43;20.30;55.20
58809;DHT22;44579;51.672;7.834;2023-05-20T14:34:10;20.30;54.90
58809;DHT22;44579;51.672;7.834;2023-05-20T14:36:37;20.40;54.70
58809;DHT22;44579;51.672;7.834;2023-05-20T14:39:04;20.40;54.50
58809;DHT22;44579;51.672;7.834;2023-05-20T14:41:31;20.40;54.60
58809;DHT22;44579;51.672;7.834;2023-05-20T14:43:58;20.30;54.60
58809;DHT22;44579;51.672;7.834;2023-05-20T14:46:25;20.20;54.70
58809;DHT22;44579;51.672;7.834;2023-05-20T14:48:52;20.10;54.90
58809;DHT22;44579;51.672;7.834;2023-05-20T14:51:19;20.00;55.00
58809;DHT22;44579;51.672;7.834;2023-05-20T14:53:45;20.00;55.00
58809;DHT22;44579;51.672;7.834;2023-05-20T14:56:12;19.90;54.90
58809;DHT22;44579;51.672;7.834;2023-05-20T14:58:39;19.80;54.70
58809;DHT22;44579;51.672;7.834;2023-05-20T15:01:06;19.80;55.00
58809;DHT22;44579;51.672;7.834;2023-05-20T15:03:36;19.80;54.90
58809;DHT22;44579;51.672;7.834;2023-05-20T15:06:03;19.70;55.00
58809;DHT22;44579;51.672;7.834;2023-05-20T15:08:30;19.70;54.80
58809;DHT22;44579;51.672;7.834;2023-05-20T15:10:58;19.50;55.10
58809;DHT22;44579;51.672;7.834;2023-05-20T15:13:25;19.40;54.90
58809;DHT22;44579;51.672;7.834;2023-05-20T15:15:52;19.40;54.80
58809;DHT22;44579;51.672;7.834;2023-05-20T15:18:19;19.30;54.70
58809;DHT22;44579;51.672;7.834;2023-05-20T15:20:46;19.30;55.00
58809;DHT22;44579;51.672;7.834;2023-05-20T15:23:13;19.20;55.60
58809;DHT22;44579;51.672;7.834;2023-05-20T15:25:39;19.20;55.80
58809;DHT22;44579;51.672;7.834;2023-05-20T15:28:06;19.20;55.70
58809;DHT22;44579;51.672;7.834;2023-05-20T15:30:33;19.20;55.70
58809;DHT22;44579;51.672;7.834;2023-05-20T15:33:01;19.20;55.50
58809;DHT22;44579;51.672;7.834;2023-05-20T15:35:28;19.10;55.30
58809;DHT22;44579;51.672;7.834;2023-05-20T15:37:55;19.10;55.50
58809;DHT22;44579;51.672;7.834;2023-05-20T15:40:28;19.00;55.40
58809;DHT22;44579;51.672;7.834;2023-05-20T15:43:03;19.00;56.10
58809;DHT22;44579;51.672;7.834;2023-05-20T15:45:31;18.90;56.50
58809;DHT22;44579;51.672;7.834;2023-05-20T15:47:58;18.90;56.90
58809;DHT22;44579;51.672;7.834;2023-05-20T15:50:25;18.90;56.80
58809;DHT22;44579;51.672;7.834;2023-05-20T15:52:53;18.90;56.70
58809;DHT22;44579;51.672;7.834;2023-05-20T15:55:20;18.80;56.90